createdAt,value
2022-11-21T00:00:45.736Z,16.57
2022-11-21T00:03:12.434Z,15.57
2022-11-21T00:05:43.850Z,17.63
2022-11-21T00:08:11.570Z,17.63
2022-11-21T00:10:39.634Z,16.23
2022-11-21T00:13:07.117Z,15.50
2022-11-21T00:15:35.640Z,16.03
2022-11-21T00:18:03.195Z,16.80
2022-11-21T00:20:29.902Z,16.90
2022-11-21T00:22:56.467Z,16.47
2022-11-21T00:25:23.053Z,16.73
2022-11-21T00:27:49.628Z,18.03
2022-11-21T00:30:16.144Z,17.17
2022-11-21T00:32:42.671Z,17.13
2022-11-21T00:35:09.333Z,17.17
2022-11-21T00:37:35.933Z,16.50
2022-11-21T00:40:02.955Z,16.37
2022-11-21T00:42:29.516Z,16.43
2022-11-21T00:44:56.051Z,15.77
2022-11-21T00:47:22.479Z,16.80
2022-11-21T00:49:49.095Z,15.87
2022-11-21T00:52:16.844Z,17.23
2022-11-21T00:54:43.644Z,15.53
2022-11-21T00:57:10.343Z,16.03
2022-11-21T00:59:36.912Z,15.77
2022-11-21T01:02:03.328Z,15.57
2022-11-21T01:04:33.855Z,15.63
2022-11-21T01:07:01.021Z,16.97
2022-11-21T01:09:28.609Z,17.17
2022-11-21T01:11:56.188Z,17.23
2022-11-21T01:14:23.631Z,17.23
2022-11-21T01:16:52.830Z,16.73
2022-11-21T01:19:19.387Z,16.50
2022-11-21T01:21:45.835Z,16.80
2022-11-21T01:24:12.602Z,17.77
2022-11-21T01:26:39.307Z,17.70
2022-11-21T01:29:06.845Z,17.33
2022-11-21T01:31:33.306Z,16.77
2022-11-21T01:34:01.115Z,16.87
2022-11-21T01:36:30.245Z,15.87
2022-11-21T01:38:59.868Z,18.40
2022-11-21T01:41:33.440Z,18.83
2022-11-21T01:44:01.491Z,18.87
2022-11-21T01:46:28.016Z,17.67
2022-11-21T01:49:03.183Z,18.40
2022-11-21T01:51:47.981Z,18.30
2022-11-21T01:54:34.868Z,17.97
2022-11-21T01:57:07.810Z,17.07
2022-11-21T01:59:39.149Z,17.03
2022-11-21T02:02:08.103Z,16.43
2022-11-21T02:04:35.798Z,17.20
2022-11-21T02:07:04.743Z,16.93
2022-11-21T02:09:32.931Z,16.20
2022-11-21T02:12:03.039Z,15.63
2022-11-21T02:14:29.846Z,15.67
2022-11-21T02:17:00.770Z,15.43
2022-11-21T02:19:41.533Z,15.70
2022-11-21T02:22:14.448Z,15.67
2022-11-21T02:24:47.532Z,15.57
2022-11-21T02:27:15.023Z,15.77
2022-11-21T02:29:41.648Z,15.17
2022-11-21T02:32:08.043Z,14.80
2022-11-21T02:34:34.622Z,15.03
2022-11-21T02:37:02.113Z,14.43
2022-11-21T02:39:34.320Z,15.97
2022-11-21T02:42:17.079Z,15.13
2022-11-21T02:44:56.269Z,14.03
2022-11-21T02:47:23.140Z,14.80
2022-11-21T02:49:56.093Z,15.20
2022-11-21T02:52:22.808Z,14.80
2022-11-21T02:54:49.437Z,15.50
2022-11-21T02:57:15.982Z,15.63
2022-11-21T02:59:42.411Z,14.47
2022-11-21T03:02:08.923Z,15.67
2022-11-21T03:04:35.588Z,13.30
2022-11-21T03:07:02.070Z,15.13
2022-11-21T03:09:28.703Z,14.60
2022-11-21T03:11:55.340Z,14.53
2022-11-21T03:14:21.894Z,14.60
2022-11-21T03:16:48.295Z,13.97
2022-11-21T03:19:14.740Z,14.07
2022-11-21T03:21:41.296Z,14.03
2022-11-21T03:24:08.036Z,15.17
2022-11-21T03:26:34.476Z,14.77
2022-11-21T03:29:00.996Z,14.50
2022-11-21T03:31:27.573Z,14.33
2022-11-21T03:33:54.121Z,14.90
2022-11-21T03:36:20.649Z,13.90
2022-11-21T03:38:47.078Z,14.83
2022-11-21T03:41:31.580Z,15.00
2022-11-21T03:44:09.833Z,14.50
2022-11-21T03:46:41.049Z,14.83
2022-11-21T03:49:08.117Z,14.47
2022-11-21T03:51:35.077Z,14.30
2022-11-21T03:54:01.838Z,14.27
2022-11-21T03:56:28.474Z,14.23
2022-11-21T03:58:55.091Z,13.57
2022-11-21T04:01:21.963Z,14.50
2022-11-21T04:03:48.885Z,14.43
2022-11-21T04:06:18.537Z,14.13
2022-11-21T04:08:45.119Z,14.23
2022-11-21T04:11:11.643Z,14.87
2022-11-21T04:13:38.415Z,13.83
2022-11-21T04:16:05.056Z,14.60
2022-11-21T04:18:31.835Z,15.07
2022-11-21T04:21:04.167Z,14.60
2022-11-21T04:23:30.724Z,13.70
2022-11-21T04:25:57.142Z,13.90
2022-11-21T04:28:23.646Z,14.00
2022-11-21T04:30:52.457Z,14.17
2022-11-21T04:33:21.294Z,13.50
2022-11-21T04:35:47.812Z,14.00
2022-11-21T04:38:14.737Z,14.73
2022-11-21T04:40:43.243Z,13.80
2022-11-21T04:43:09.824Z,15.43
2022-11-21T04:45:36.277Z,15.57
2022-11-21T04:48:02.822Z,15.40
2022-11-21T04:50:29.308Z,14.37
2022-11-21T04:52:57.249Z,16.37
2022-11-21T04:55:27.527Z,15.60
2022-11-21T04:57:54.081Z,15.80
2022-11-21T05:00:24.437Z,17.60
2022-11-21T05:02:51.192Z,17.37
2022-11-21T05:05:17.666Z,17.90
2022-11-21T05:07:44.317Z,17.27
2022-11-21T05:10:11.026Z,18.67
2022-11-21T05:12:56.157Z,18.77
2022-11-21T05:15:24.880Z,17.17
2022-11-21T05:17:51.991Z,17.30
2022-11-21T05:20:19.126Z,17.97
2022-11-21T05:22:49.891Z,18.60
2022-11-21T05:25:16.771Z,17.70
2022-11-21T05:27:43.248Z,18.77
2022-11-21T05:30:11.057Z,19.87
2022-11-21T05:32:37.830Z,19.20
2022-11-21T05:35:04.442Z,19.03
2022-11-21T05:37:30.885Z,19.70
2022-11-21T05:39:57.381Z,19.97
2022-11-21T05:42:43.757Z,18.83
2022-11-21T05:45:10.434Z,18.80
2022-11-21T05:47:37.163Z,20.43
2022-11-21T05:50:04.386Z,21.37
2022-11-21T05:52:30.876Z,21.70
2022-11-21T05:54:57.475Z,20.07
2022-11-21T05:57:24.171Z,19.77
2022-11-21T05:59:50.817Z,20.20
2022-11-21T06:02:35.810Z,22.77
2022-11-21T06:05:02.278Z,21.80
2022-11-21T06:07:28.790Z,22.57
2022-11-21T06:09:55.497Z,21.07
2022-11-21T06:12:25.415Z,21.87
2022-11-21T06:14:52.447Z,20.70
2022-11-21T06:17:19.220Z,20.23
2022-11-21T06:19:46.013Z,21.37
2022-11-21T06:22:12.467Z,20.23
2022-11-21T06:24:38.857Z,21.70
2022-11-21T06:27:05.512Z,21.00
2022-11-21T06:29:32.148Z,21.87
2022-11-21T06:31:58.663Z,19.47
2022-11-21T06:34:28.242Z,21.70
2022-11-21T06:36:54.904Z,19.87
2022-11-21T06:39:21.407Z,18.60
2022-11-21T06:41:51.260Z,18.87
2022-11-21T06:44:21.074Z,17.93
2022-11-21T06:46:51.240Z,18.70
2022-11-21T06:49:17.922Z,19.27
2022-11-21T06:51:44.740Z,18.53
2022-11-21T06:54:16.339Z,18.03
2022-11-21T06:56:43.713Z,19.77
2022-11-21T06:59:10.327Z,19.93
2022-11-21T07:01:37.033Z,18.43
2022-11-21T07:04:03.715Z,18.53
2022-11-21T07:06:30.193Z,18.23
2022-11-21T07:11:43.692Z,19.80
2022-11-21T07:14:10.226Z,19.70
2022-11-21T07:16:37.385Z,18.47
2022-11-21T07:19:03.833Z,19.23
2022-11-21T07:21:30.270Z,19.23
2022-11-21T07:23:56.737Z,19.67
2022-11-21T07:26:23.178Z,20.20
2022-11-21T07:28:51.217Z,18.73
2022-11-21T07:31:17.880Z,19.60
2022-11-21T07:33:45.615Z,18.83
2022-11-21T07:36:12.652Z,19.30
2022-11-21T07:38:40.886Z,19.57
2022-11-21T07:41:07.470Z,20.03
2022-11-21T07:43:33.894Z,18.33
2022-11-21T07:46:00.564Z,19.83
2022-11-21T07:48:27.029Z,18.83
2022-11-21T07:50:53.664Z,18.57
2022-11-21T07:53:20.090Z,18.17
2022-11-21T07:55:46.551Z,18.10
2022-11-21T07:58:15.909Z,17.67
2022-11-21T08:00:43.051Z,18.07
2022-11-21T08:03:12.156Z,17.13
2022-11-21T08:05:40.454Z,15.47
2022-11-21T08:08:07.242Z,17.03
2022-11-21T08:10:36.568Z,16.83
2022-11-21T08:13:03.020Z,16.27
2022-11-21T08:15:29.442Z,15.80
2022-11-21T08:17:56.134Z,16.10
2022-11-21T08:20:22.869Z,16.93
2022-11-21T08:22:49.847Z,17.93
2022-11-21T08:25:16.558Z,17.63
2022-11-21T08:27:44.374Z,17.47
2022-11-21T08:30:14.823Z,16.47
2022-11-21T08:32:52.664Z,16.83
2022-11-21T08:35:19.229Z,16.87
2022-11-21T08:37:45.773Z,16.93
2022-11-21T08:40:12.415Z,17.07
2022-11-21T08:42:39.024Z,16.63
2022-11-21T08:45:06.598Z,17.03
2022-11-21T08:47:34.555Z,17.70
2022-11-21T08:50:07.336Z,18.00
2022-11-21T08:52:35.473Z,17.40
2022-11-21T08:55:02.525Z,17.90
2022-11-21T08:57:29.627Z,18.90
2022-11-21T08:59:56.313Z,19.87
2022-11-21T09:02:22.733Z,18.60
2022-11-21T09:04:49.207Z,19.30
2022-11-21T09:07:15.841Z,18.70
2022-11-21T09:09:42.829Z,19.63
2022-11-21T09:12:09.712Z,19.67
2022-11-21T09:14:54.899Z,21.03
2022-11-21T09:17:42.360Z,19.77
2022-11-21T09:20:09.348Z,21.47
2022-11-21T09:22:35.843Z,19.73
2022-11-21T09:25:02.321Z,20.17
2022-11-21T09:27:30.418Z,18.77
2022-11-21T09:29:56.943Z,20.17
2022-11-21T09:32:23.892Z,19.63
2022-11-21T09:34:50.764Z,19.77
2022-11-21T09:37:17.458Z,19.80
2022-11-21T09:39:43.926Z,19.80
2022-11-21T09:42:24.063Z,18.70
2022-11-21T09:44:50.617Z,19.17
2022-11-21T09:47:31.495Z,18.13
2022-11-21T09:50:01.065Z,19.00
2022-11-21T09:52:36.051Z,19.60
2022-11-21T09:55:06.811Z,19.47
2022-11-21T09:57:35.733Z,19.00
2022-11-21T10:00:04.917Z,18.77
2022-11-21T10:02:31.402Z,17.43
2022-11-21T10:05:00.737Z,18.63
2022-11-21T10:07:29.656Z,17.40
2022-11-21T10:10:14.950Z,17.90
2022-11-21T10:13:03.220Z,17.00
2022-11-21T10:15:55.977Z,18.10
2022-11-21T10:18:39.088Z,17.27
2022-11-21T10:21:31.314Z,17.33
2022-11-21T10:24:10.447Z,16.70
2022-11-21T10:27:06.850Z,16.23
2022-11-21T10:29:37.043Z,17.37
2022-11-21T10:32:21.048Z,16.30
2022-11-21T10:34:49.483Z,16.90
2022-11-21T10:37:26.181Z,16.93
2022-11-21T10:39:54.617Z,17.10
2022-11-21T10:42:35.784Z,16.37
2022-11-21T10:45:19.808Z,16.80
2022-11-21T10:47:48.785Z,17.13
2022-11-21T10:50:29.117Z,17.77
2022-11-21T10:53:24.750Z,16.47
2022-11-21T10:56:13.889Z,16.90
2022-11-21T10:58:43.375Z,16.57
2022-11-21T11:01:23.274Z,14.97
2022-11-21T11:04:45.610Z,16.83
2022-11-21T11:07:00.131Z,16.27
2022-11-21T11:09:34.528Z,16.10
2022-11-21T11:12:48.478Z,15.43
2022-11-21T11:15:26.153Z,14.93
2022-11-21T11:17:57.833Z,14.70
2022-11-21T11:20:36.521Z,19.47
2022-11-21T11:23:16.148Z,37.83
2022-11-21T11:26:15.066Z,21.00
2022-11-21T11:28:41.592Z,13.93
2022-11-21T11:31:08.346Z,15.33
2022-11-21T11:33:50.986Z,14.17
2022-11-21T11:36:41.301Z,15.27
2022-11-21T11:39:19.503Z,15.83
2022-11-21T11:42:23.573Z,14.97
2022-11-21T11:45:26.795Z,12.97
2022-11-21T11:47:59.321Z,13.93
2022-11-21T11:50:37.275Z,14.13
2022-11-21T11:53:31.815Z,14.10
2022-11-21T11:56:01.977Z,15.37
2022-11-21T11:58:45.344Z,15.70
2022-11-21T12:01:14.738Z,15.27
2022-11-21T12:04:22.288Z,13.97
2022-11-21T12:07:52.803Z,16.13
2022-11-21T12:09:49.958Z,15.27
2022-11-21T12:12:16.472Z,14.63
2022-11-21T12:15:13.809Z,14.07
2022-11-21T12:17:47.106Z,14.03
2022-11-21T12:20:45.158Z,15.23
2022-11-21T12:23:12.338Z,14.70
2022-11-21T12:25:47.408Z,16.20
2022-11-21T12:28:54.425Z,15.17
2022-11-21T12:31:26.370Z,14.90
2022-11-21T12:34:02.543Z,15.03
2022-11-21T12:36:40.604Z,14.73
2022-11-21T12:39:25.667Z,14.03
2022-11-21T12:42:21.043Z,14.33
2022-11-21T12:45:20.947Z,14.80
2022-11-21T12:48:18.626Z,15.43
2022-11-21T12:51:06.870Z,15.10
2022-11-21T12:54:03.370Z,14.97
2022-11-21T12:56:38.609Z,13.23
2022-11-21T12:59:05.709Z,14.27
2022-11-21T13:01:58.459Z,14.00
2022-11-21T13:04:28.353Z,14.70
2022-11-21T13:06:56.169Z,14.60
2022-11-21T13:09:23.290Z,14.67
2022-11-21T13:12:02.559Z,14.47
2022-11-21T13:14:36.551Z,12.77
2022-11-21T13:17:06.726Z,12.90
2022-11-21T13:19:45.301Z,12.30
2022-11-21T13:22:36.794Z,11.50
2022-11-21T13:25:13.660Z,12.07
2022-11-21T13:27:40.720Z,11.50
2022-11-21T13:30:07.755Z,10.90
2022-11-21T13:32:38.340Z,11.10
2022-11-21T13:35:19.666Z,10.97
2022-11-21T13:37:52.395Z,11.40
2022-11-21T13:40:27.917Z,10.80
2022-11-21T13:43:33.296Z,10.80
2022-11-21T13:46:00.862Z,10.30
2022-11-21T13:48:36.830Z,10.07
2022-11-21T13:51:09.835Z,11.13
2022-11-21T13:53:45.959Z,10.03
2022-11-21T13:56:37.321Z,12.63
2022-11-21T13:59:16.013Z,12.80
2022-11-21T14:01:54.603Z,14.00
2022-11-21T14:04:42.570Z,13.73
2022-11-21T14:07:30.094Z,13.87
2022-11-21T14:10:01.773Z,13.67
2022-11-21T14:12:38.439Z,13.87
2022-11-21T14:15:32.395Z,15.07
2022-11-21T14:17:59.795Z,14.30
2022-11-21T14:20:28.616Z,13.77
2022-11-21T14:23:01.363Z,14.60
2022-11-21T14:25:35.409Z,14.57
2022-11-21T14:28:02.583Z,15.00
2022-11-21T14:30:40.254Z,16.57
2022-11-21T14:33:29.517Z,15.53
2022-11-21T14:35:58.058Z,14.43
2022-11-21T14:38:24.898Z,15.07
2022-11-21T14:40:51.901Z,16.40
2022-11-21T14:43:36.629Z,15.47
2022-11-21T14:46:03.151Z,15.37
2022-11-21T14:48:30.492Z,15.63
2022-11-21T14:50:58.431Z,16.17
2022-11-21T14:53:25.804Z,16.30
2022-11-21T14:55:56.839Z,15.70
2022-11-21T14:58:26.514Z,16.30
2022-11-21T15:01:20.216Z,16.50
2022-11-21T15:03:56.925Z,15.87
2022-11-21T15:06:24.237Z,16.27
2022-11-21T15:12:04.768Z,15.90
2022-11-21T15:15:01.857Z,15.63
2022-11-21T15:17:28.576Z,15.67
2022-11-21T15:20:12.309Z,16.37
2022-11-21T15:22:41.433Z,15.47
2022-11-21T15:25:22.281Z,17.43
2022-11-21T15:27:53.016Z,15.67
2022-11-21T15:30:21.986Z,16.20
2022-11-21T15:33:01.655Z,14.63
2022-11-21T15:35:32.122Z,16.37
2022-11-21T15:37:58.809Z,15.43
2022-11-21T15:40:25.328Z,15.70
2022-11-21T15:42:51.955Z,17.00
2022-11-21T15:45:27.583Z,17.43
2022-11-21T15:47:55.518Z,16.60
2022-11-21T15:50:25.097Z,14.97
2022-11-21T15:52:52.454Z,16.33
2022-11-21T15:55:22.703Z,16.33
2022-11-21T15:57:49.251Z,16.27
2022-11-21T16:00:17.222Z,16.33
2022-11-21T16:02:43.617Z,16.73
2022-11-21T16:05:12.606Z,16.30
2022-11-21T16:07:39.272Z,16.63
2022-11-21T16:10:07.130Z,16.30
2022-11-21T16:12:35.513Z,16.67
2022-11-21T16:15:02.425Z,17.00
2022-11-21T16:17:28.863Z,17.10
2022-11-21T16:19:55.316Z,17.30
2022-11-21T16:22:21.813Z,16.23
2022-11-21T16:24:49.472Z,17.20
2022-11-21T16:27:16.432Z,16.63
2022-11-21T16:29:42.881Z,17.13
2022-11-21T16:32:09.289Z,18.57
2022-11-21T16:34:36.055Z,16.80
2022-11-21T16:37:07.150Z,17.33
2022-11-21T16:39:34.473Z,17.57
2022-11-21T16:42:01.216Z,18.47
2022-11-21T16:44:30.140Z,18.20
2022-11-21T16:46:56.736Z,18.67
2022-11-21T16:49:24.638Z,18.73
2022-11-21T16:51:51.050Z,18.43
2022-11-21T16:54:17.559Z,17.53
2022-11-21T16:56:44.237Z,18.50
2022-11-21T16:59:10.870Z,18.70
2022-11-21T17:01:37.377Z,17.37
2022-11-21T17:04:03.936Z,18.00
2022-11-21T17:06:31.194Z,16.53
2022-11-21T17:09:00.065Z,16.87
2022-11-21T17:11:29.298Z,15.67
2022-11-21T17:13:58.876Z,15.73
2022-11-21T17:16:25.351Z,16.37
2022-11-21T17:18:56.149Z,15.40
2022-11-21T17:21:23.209Z,16.77
2022-11-21T17:23:50.473Z,16.00
2022-11-21T17:26:19.299Z,15.20
2022-11-21T17:28:54.526Z,15.23
2022-11-21T17:31:21.521Z,14.70
2022-11-21T17:33:51.688Z,15.60
2022-11-21T17:36:22.238Z,17.23
2022-11-21T17:38:49.233Z,17.17
2022-11-21T17:41:17.850Z,17.40
2022-11-21T17:43:44.952Z,16.83
2022-11-21T17:46:19.073Z,17.77
2022-11-21T17:48:51.460Z,17.13
2022-11-21T17:51:23.812Z,18.10
2022-11-21T17:53:51.538Z,17.73
2022-11-21T17:56:20.239Z,17.87
2022-11-21T17:58:47.233Z,17.57
2022-11-21T18:01:18.873Z,18.10
2022-11-21T18:03:47.094Z,17.80
2022-11-21T18:06:15.818Z,17.67
2022-11-21T18:08:44.223Z,17.93
2022-11-21T18:11:12.059Z,17.77
2022-11-21T18:13:39.236Z,18.07
2022-11-21T18:16:10.429Z,17.50
2022-11-21T18:18:37.384Z,17.03
2022-11-21T18:21:07.574Z,17.13
2022-11-21T18:23:34.164Z,16.33
2022-11-21T18:26:04.907Z,17.53
2022-11-21T18:28:32.116Z,16.13
2022-11-21T18:31:08.736Z,16.10
2022-11-21T18:33:36.284Z,16.47
2022-11-21T18:36:04.042Z,18.03
2022-11-21T18:38:54.850Z,17.03
2022-11-21T18:41:34.070Z,17.50
2022-11-21T18:44:02.784Z,15.47
2022-11-21T18:46:30.972Z,16.10
2022-11-21T18:49:04.632Z,16.13
2022-11-21T18:51:32.850Z,16.30
2022-11-21T18:54:08.384Z,15.87
2022-11-21T18:56:36.315Z,14.47
2022-11-21T18:59:04.605Z,14.87
2022-11-21T19:01:33.082Z,14.80
2022-11-21T19:03:59.753Z,13.97
2022-11-21T19:06:27.371Z,14.73
2022-11-21T19:08:55.714Z,13.23
2022-11-21T19:11:26.975Z,13.70
2022-11-21T19:13:54.822Z,14.07
2022-11-21T19:16:26.289Z,13.77
2022-11-21T19:21:41.454Z,13.30
2022-11-21T19:24:13.006Z,13.33
2022-11-21T19:26:39.569Z,13.43
2022-11-21T19:29:06.191Z,13.93
2022-11-21T19:31:32.634Z,12.90
2022-11-21T19:33:59.049Z,14.13
2022-11-21T19:36:25.575Z,13.90
2022-11-21T19:38:52.114Z,13.60
2022-11-21T19:41:25.356Z,13.20
2022-11-21T19:43:53.548Z,15.37
2022-11-21T19:46:28.022Z,14.17
2022-11-21T19:48:55.771Z,14.43
2022-11-21T19:51:25.126Z,14.00
2022-11-21T19:53:51.583Z,15.30
2022-11-21T19:56:20.206Z,15.33
2022-11-21T19:58:47.598Z,15.13
2022-11-21T20:01:16.320Z,15.53
2022-11-21T20:03:46.026Z,15.57
2022-11-21T20:06:23.290Z,15.43
2022-11-21T20:08:51.577Z,16.00
2022-11-21T20:11:18.091Z,16.20
2022-11-21T20:13:45.953Z,14.70
2022-11-21T20:16:22.153Z,17.17
2022-11-21T20:18:49.029Z,16.80
2022-11-21T20:21:16.295Z,17.50
2022-11-21T20:23:42.949Z,17.43
2022-11-21T20:26:09.759Z,17.67
2022-11-21T20:28:36.949Z,17.97
2022-11-21T20:31:08.606Z,17.73
2022-11-21T20:33:42.500Z,17.20
2022-11-21T20:36:19.361Z,18.40
2022-11-21T20:39:06.839Z,18.30
2022-11-21T20:41:35.728Z,17.63
2022-11-21T20:46:51.746Z,18.43
2022-11-21T20:49:18.189Z,16.60
2022-11-21T20:54:31.491Z,16.57
2022-11-21T20:56:58.182Z,16.93
2022-11-21T20:59:25.994Z,16.50
2022-11-21T21:01:52.529Z,17.27
2022-11-21T21:04:19.135Z,16.57
2022-11-21T21:06:45.607Z,17.07
2022-11-21T21:09:12.235Z,16.90
2022-11-21T21:11:52.076Z,16.40
2022-11-21T21:14:19.893Z,16.83
2022-11-21T21:16:46.838Z,16.93
2022-11-21T21:19:13.454Z,16.07
2022-11-21T21:21:41.648Z,17.30
2022-11-21T21:24:09.802Z,16.03
2022-11-21T21:26:42.977Z,16.73
2022-11-21T21:29:16.108Z,18.13
2022-11-21T21:31:50.056Z,18.20
2022-11-21T21:34:17.782Z,18.67
2022-11-21T21:36:44.459Z,17.80
2022-11-21T21:39:10.922Z,19.23
2022-11-21T21:41:40.008Z,19.50
2022-11-21T21:44:07.109Z,17.90
2022-11-21T21:46:33.613Z,18.33
2022-11-21T21:49:00.057Z,19.70
2022-11-21T21:51:28.497Z,18.77
2022-11-21T21:53:57.241Z,20.87
2022-11-21T21:56:28.317Z,19.20
2022-11-21T22:01:57.557Z,19.07
2022-11-21T22:04:24.015Z,20.30
2022-11-21T22:06:50.504Z,19.30
2022-11-21T22:09:16.981Z,21.77
2022-11-21T22:11:43.552Z,20.13
2022-11-21T22:14:15.243Z,21.07
2022-11-21T22:16:42.461Z,20.83
2022-11-21T22:19:09.705Z,21.30
2022-11-21T22:21:37.593Z,20.13
2022-11-21T22:24:25.446Z,18.93
2022-11-21T22:26:53.512Z,19.27
2022-11-21T22:29:19.894Z,19.87
2022-11-21T22:31:46.318Z,18.27
2022-11-21T22:34:15.644Z,20.03
2022-11-21T22:36:42.885Z,18.57
2022-11-21T22:39:09.273Z,18.77
2022-11-21T22:41:35.953Z,18.03
2022-11-21T22:44:02.670Z,18.40
2022-11-21T22:46:30.129Z,18.53
2022-11-21T22:48:57.043Z,19.13
2022-11-21T22:51:26.891Z,19.30
2022-11-21T22:53:53.340Z,17.50
2022-11-21T22:56:21.537Z,17.20
2022-11-21T22:58:48.027Z,15.97
2022-11-21T23:01:16.823Z,14.93
2022-11-21T23:03:43.555Z,14.03
2022-11-21T23:06:12.749Z,14.80
2022-11-21T23:08:39.898Z,14.07
2022-11-21T23:11:16.590Z,14.53
2022-11-21T23:13:44.547Z,15.37
2022-11-21T23:16:12.187Z,13.83
2022-11-21T23:18:39.113Z,15.30
2022-11-21T23:21:06.005Z,13.73
2022-11-21T23:23:32.626Z,13.93
2022-11-21T23:25:59.403Z,13.90
2022-11-21T23:28:25.926Z,14.10
2022-11-21T23:30:52.413Z,13.53
2022-11-21T23:33:19.151Z,13.67
2022-11-21T23:35:46.308Z,13.80
2022-11-21T23:38:14.295Z,12.90
2022-11-21T23:40:41.133Z,13.20
2022-11-21T23:43:07.679Z,13.40
2022-11-21T23:45:34.442Z,13.07
2022-11-21T23:48:00.933Z,12.67
2022-11-21T23:50:27.450Z,14.20
2022-11-21T23:52:54.011Z,12.40
2022-11-21T23:55:20.468Z,13.97
2022-11-21T23:57:48.310Z,14.27
